DAL4522 KMTJ-KSLC
Flight info
| Callsign | DAL4522 |
|---|---|
| Flight time | 0h 50m |
| Altitude | 32000 |
| Route | BRICK4 JNC HELPR PITTT2 |
| Aircraft | B738/M-SDE2E3FGHIRWXY/LB1 |
Departure
| Time | 2026-05-07 13:32 |
|---|---|
| Airport | Montrose Regional Airport (KMTJ) |
Arrival
| Time | 2026-05-07 14:23 |
|---|---|
| Airport | Salt Lake City International Airport (KSLC) |
| Time | Latitude | Longitude | Altitude | Speed | Heading |
|---|---|---|---|---|---|
| 2026-05-07 13:11 | 38.50149 | -107.89958 | 5732 ft | 0 kts | 230° |
| 2026-05-07 13:24 | 38.50152 | -107.89955 | 5726 ft | 3 kts | 231° |
| 2026-05-07 13:24 | 38.50165 | -107.89926 | 5729 ft | 4 kts | 253° |
| 2026-05-07 13:24 | 38.50171 | -107.89895 | 5731 ft | 2 kts | 259° |
| 2026-05-07 13:24 | 38.50172 | -107.89888 | 5730 ft | 0 kts | 259° |
| 2026-05-07 13:26 | 38.50172 | -107.89889 | 5730 ft | 1 kts | 259° |
| 2026-05-07 13:26 | 38.50177 | -107.89894 | 5731 ft | 1 kts | 324° |
| 2026-05-07 13:26 | 38.50192 | -107.89886 | 5730 ft | 6 kts | 28° |
| 2026-05-07 13:27 | 38.50247 | -107.89812 | 5727 ft | 15 kts | 51° |
| 2026-05-07 13:27 | 38.50324 | -107.89698 | 5732 ft | 17 kts | 49° |
| 2026-05-07 13:27 | 38.50400 | -107.89585 | 5732 ft | 17 kts | 49° |
| 2026-05-07 13:27 | 38.50481 | -107.89465 | 5736 ft | 20 kts | 49° |
| 2026-05-07 13:28 | 38.50617 | -107.89407 | 5732 ft | 24 kts | 0° |
| 2026-05-07 13:28 | 38.50802 | -107.89407 | 5730 ft | 29 kts | 360° |
| 2026-05-07 13:28 | 38.50967 | -107.89407 | 5731 ft | 24 kts | 360° |
| 2026-05-07 13:28 | 38.51140 | -107.89408 | 5727 ft | 26 kts | 360° |
| 2026-05-07 13:29 | 38.51325 | -107.89409 | 5724 ft | 27 kts | 360° |
| 2026-05-07 13:29 | 38.51514 | -107.89409 | 5723 ft | 27 kts | 0° |
| 2026-05-07 13:29 | 38.51694 | -107.89409 | 5721 ft | 25 kts | 0° |
| 2026-05-07 13:29 | 38.51866 | -107.89408 | 5718 ft | 26 kts | 360° |
| 2026-05-07 13:30 | 38.52055 | -107.89411 | 5715 ft | 27 kts | 359° |
| 2026-05-07 13:30 | 38.52248 | -107.89413 | 5713 ft | 28 kts | 360° |
| 2026-05-07 13:30 | 38.52448 | -107.89414 | 5710 ft | 29 kts | 360° |
| 2026-05-07 13:30 | 38.52643 | -107.89415 | 5708 ft | 27 kts | 360° |
| 2026-05-07 13:31 | 38.52825 | -107.89416 | 5705 ft | 26 kts | 360° |
| 2026-05-07 13:31 | 38.52951 | -107.89400 | 5703 ft | 16 kts | 34° |
| 2026-05-07 13:31 | 38.52953 | -107.89284 | 5701 ft | 14 kts | 152° |
| 2026-05-07 13:31 | 38.52775 | -107.89275 | 5706 ft | 56 kts | 180° |
| 2026-05-07 13:32 | 38.52149 | -107.89273 | 5714 ft | 122 kts | 180° |
| 2026-05-07 13:32 | 38.51498 | -107.89273 | 5726 ft | 160 kts | 179° |
| 2026-05-07 13:32 | 38.50257 | -107.89254 | 6010 ft | 193 kts | 178° |
| 2026-05-07 13:32 | 38.48438 | -107.89566 | 6881 ft | 205 kts | 206° |
| 2026-05-07 13:33 | 38.47629 | -107.90237 | 7386 ft | 209 kts | 220° |
| 2026-05-07 13:33 | 38.46569 | -107.92367 | 8053 ft | 226 kts | 253° |
| 2026-05-07 13:33 | 38.46367 | -107.93725 | 8231 ft | 239 kts | 267° |
| 2026-05-07 13:33 | 38.46656 | -107.95881 | 8479 ft | 256 kts | 295° |
| 2026-05-07 13:34 | 38.47746 | -107.97689 | 9015 ft | 261 kts | 320° |
| 2026-05-07 13:34 | 38.51096 | -107.99341 | 10332 ft | 267 kts | 348° |
| 2026-05-07 13:34 | 38.53007 | -107.99827 | 10553 ft | 293 kts | 349° |
| 2026-05-07 13:35 | 38.55088 | -108.00340 | 10753 ft | 317 kts | 349° |
| 2026-05-07 13:35 | 38.57328 | -108.00957 | 10933 ft | 341 kts | 341° |
| 2026-05-07 13:35 | 38.59443 | -108.02408 | 11423 ft | 351 kts | 322° |
| 2026-05-07 13:35 | 38.61121 | -108.04683 | 12189 ft | 353 kts | 308° |
| 2026-05-07 13:36 | 38.62585 | -108.07205 | 13029 ft | 354 kts | 306° |
| 2026-05-07 13:36 | 38.64028 | -108.09770 | 13782 ft | 357 kts | 306° |
| 2026-05-07 13:36 | 38.65483 | -108.12358 | 14479 ft | 360 kts | 307° |
| 2026-05-07 13:36 | 38.66959 | -108.14960 | 15171 ft | 361 kts | 307° |
| 2026-05-07 13:37 | 38.68443 | -108.17558 | 15877 ft | 362 kts | 307° |
| 2026-05-07 13:37 | 38.69921 | -108.20132 | 16551 ft | 364 kts | 307° |
| 2026-05-07 13:37 | 38.71424 | -108.22744 | 17225 ft | 365 kts | 307° |
| 2026-05-07 13:37 | 38.72935 | -108.25369 | 17884 ft | 367 kts | 307° |
| 2026-05-07 13:38 | 38.74450 | -108.28006 | 18535 ft | 369 kts | 308° |
| 2026-05-07 13:38 | 38.75992 | -108.30645 | 19083 ft | 371 kts | 309° |
| 2026-05-07 13:38 | 38.77592 | -108.33251 | 19629 ft | 373 kts | 309° |
| 2026-05-07 13:38 | 38.79218 | -108.35852 | 20175 ft | 375 kts | 309° |
| 2026-05-07 13:39 | 38.80858 | -108.38469 | 20700 ft | 377 kts | 309° |
| 2026-05-07 13:39 | 38.82503 | -108.41103 | 21205 ft | 380 kts | 309° |
| 2026-05-07 13:39 | 38.84152 | -108.43768 | 21675 ft | 383 kts | 308° |
| 2026-05-07 13:39 | 38.85808 | -108.46455 | 22172 ft | 385 kts | 308° |
| 2026-05-07 13:40 | 38.87477 | -108.49160 | 22671 ft | 387 kts | 308° |
| 2026-05-07 13:40 | 38.89151 | -108.51874 | 23143 ft | 390 kts | 308° |
| 2026-05-07 13:40 | 38.90838 | -108.54610 | 23605 ft | 392 kts | 308° |
| 2026-05-07 13:40 | 38.92539 | -108.57370 | 24017 ft | 395 kts | 308° |
| 2026-05-07 13:41 | 38.94245 | -108.60142 | 24404 ft | 397 kts | 308° |
| 2026-05-07 13:41 | 38.95960 | -108.62929 | 24776 ft | 399 kts | 308° |
| 2026-05-07 13:41 | 38.97680 | -108.65730 | 25142 ft | 401 kts | 308° |
| 2026-05-07 13:41 | 38.99412 | -108.68551 | 25504 ft | 403 kts | 308° |
| 2026-05-07 13:42 | 39.01153 | -108.71388 | 25861 ft | 405 kts | 308° |
| 2026-05-07 13:42 | 39.02903 | -108.74242 | 26222 ft | 407 kts | 308° |
| 2026-05-07 13:42 | 39.04655 | -108.77106 | 26561 ft | 409 kts | 308° |
| 2026-05-07 13:42 | 39.06370 | -108.80032 | 26883 ft | 411 kts | 303° |
| 2026-05-07 13:43 | 39.07794 | -108.83237 | 27213 ft | 414 kts | 299° |
| 2026-05-07 13:43 | 39.09115 | -108.86538 | 27537 ft | 416 kts | 298° |
| 2026-05-07 13:43 | 39.10416 | -108.89880 | 27843 ft | 418 kts | 298° |
| 2026-05-07 13:43 | 39.11721 | -108.93233 | 28146 ft | 420 kts | 298° |
| 2026-05-07 13:44 | 39.13041 | -108.96597 | 28441 ft | 422 kts | 298° |
| 2026-05-07 13:44 | 39.14378 | -108.99968 | 28740 ft | 424 kts | 298° |
| 2026-05-07 13:44 | 39.15735 | -109.03355 | 29032 ft | 426 kts | 299° |
| 2026-05-07 13:44 | 39.17098 | -109.06740 | 29369 ft | 426 kts | 299° |
| 2026-05-07 13:45 | 39.18462 | -109.10123 | 29832 ft | 424 kts | 299° |
| 2026-05-07 13:45 | 39.19815 | -109.13487 | 30300 ft | 422 kts | 299° |
| 2026-05-07 13:45 | 39.21163 | -109.16839 | 30652 ft | 421 kts | 299° |
| 2026-05-07 13:45 | 39.22506 | -109.20184 | 30953 ft | 421 kts | 299° |
| 2026-05-07 13:46 | 39.23850 | -109.23537 | 31262 ft | 420 kts | 299° |
| 2026-05-07 13:46 | 39.25189 | -109.26882 | 31590 ft | 419 kts | 299° |
| 2026-05-07 13:46 | 39.26523 | -109.30217 | 31917 ft | 418 kts | 300° |
| 2026-05-07 13:46 | 39.27857 | -109.33557 | 32184 ft | 418 kts | 300° |
| 2026-05-07 13:47 | 39.29198 | -109.36915 | 32153 ft | 423 kts | 300° |
| 2026-05-07 13:47 | 39.31890 | -109.43672 | 32157 ft | 422 kts | 300° |
| 2026-05-07 13:48 | 39.34547 | -109.50362 | 32159 ft | 416 kts | 300° |
| 2026-05-07 13:48 | 39.37193 | -109.57034 | 32150 ft | 417 kts | 300° |
| 2026-05-07 13:49 | 39.39840 | -109.63720 | 32151 ft | 418 kts | 300° |
| 2026-05-07 13:49 | 39.42488 | -109.70427 | 32139 ft | 419 kts | 299° |
| 2026-05-07 13:50 | 39.45136 | -109.77149 | 32137 ft | 419 kts | 299° |
| 2026-05-07 13:50 | 39.47780 | -109.83876 | 32133 ft | 419 kts | 299° |
| 2026-05-07 13:51 | 39.50419 | -109.90604 | 32129 ft | 419 kts | 299° |
| 2026-05-07 13:51 | 39.53054 | -109.97337 | 32133 ft | 418 kts | 299° |
| 2026-05-07 13:52 | 39.55661 | -110.04014 | 32139 ft | 418 kts | 299° |
| 2026-05-07 13:52 | 39.58277 | -110.10729 | 32135 ft | 417 kts | 299° |
| 2026-05-07 13:53 | 39.60887 | -110.17443 | 32138 ft | 417 kts | 299° |
| 2026-05-07 13:53 | 39.63489 | -110.24151 | 32128 ft | 416 kts | 299° |
| 2026-05-07 13:54 | 39.66080 | -110.30847 | 32130 ft | 415 kts | 299° |
| 2026-05-07 13:54 | 39.68660 | -110.37530 | 32144 ft | 414 kts | 299° |
| 2026-05-07 13:55 | 39.71235 | -110.44214 | 32141 ft | 414 kts | 299° |
| 2026-05-07 13:55 | 39.73806 | -110.50901 | 32134 ft | 414 kts | 299° |
| 2026-05-07 13:56 | 39.74939 | -110.53851 | 32141 ft | 414 kts | 299° |
| 2026-05-07 13:56 | 39.77099 | -110.59487 | 32134 ft | 413 kts | 299° |
| 2026-05-07 13:57 | 39.79660 | -110.66177 | 32142 ft | 413 kts | 299° |
| 2026-05-07 13:57 | 39.82216 | -110.72870 | 32136 ft | 413 kts | 299° |
| 2026-05-07 13:57 | 39.83499 | -110.76234 | 31682 ft | 419 kts | 299° |
| 2026-05-07 13:58 | 39.84788 | -110.79617 | 31074 ft | 417 kts | 299° |
| 2026-05-07 13:58 | 39.86075 | -110.83002 | 30415 ft | 416 kts | 298° |
| 2026-05-07 13:58 | 39.87356 | -110.86375 | 29758 ft | 414 kts | 298° |
| 2026-05-07 13:58 | 39.88624 | -110.89719 | 29194 ft | 410 kts | 298° |
| 2026-05-07 13:59 | 39.89859 | -110.92981 | 28684 ft | 405 kts | 298° |
| 2026-05-07 13:59 | 39.91097 | -110.96252 | 28146 ft | 400 kts | 298° |
| 2026-05-07 13:59 | 39.92320 | -110.99488 | 27632 ft | 396 kts | 298° |
| 2026-05-07 13:59 | 39.93529 | -111.02687 | 27127 ft | 392 kts | 298° |
| 2026-05-07 14:00 | 39.94727 | -111.05861 | 26613 ft | 388 kts | 298° |
| 2026-05-07 14:00 | 39.95911 | -111.09004 | 26113 ft | 385 kts | 298° |
| 2026-05-07 14:00 | 39.97086 | -111.12123 | 25620 ft | 381 kts | 298° |
| 2026-05-07 14:00 | 39.98249 | -111.15212 | 25132 ft | 378 kts | 298° |
| 2026-05-07 14:01 | 39.99404 | -111.18284 | 24640 ft | 376 kts | 298° |
| 2026-05-07 14:01 | 40.00555 | -111.21348 | 24139 ft | 375 kts | 298° |
| 2026-05-07 14:01 | 40.01697 | -111.24394 | 23634 ft | 374 kts | 298° |
| 2026-05-07 14:01 | 40.02835 | -111.27433 | 23078 ft | 371 kts | 298° |
| 2026-05-07 14:02 | 40.03963 | -111.30447 | 22553 ft | 368 kts | 298° |
| 2026-05-07 14:02 | 40.05080 | -111.33437 | 22063 ft | 365 kts | 298° |
| 2026-05-07 14:02 | 40.06190 | -111.36410 | 21582 ft | 362 kts | 298° |
| 2026-05-07 14:02 | 40.07286 | -111.39350 | 21112 ft | 359 kts | 297° |
| 2026-05-07 14:03 | 40.08377 | -111.42277 | 20635 ft | 357 kts | 297° |
| 2026-05-07 14:03 | 40.09457 | -111.45178 | 20171 ft | 354 kts | 297° |
| 2026-05-07 14:03 | 40.10530 | -111.48061 | 19731 ft | 352 kts | 297° |
| 2026-05-07 14:03 | 40.11592 | -111.50919 | 19435 ft | 345 kts | 297° |
| 2026-05-07 14:04 | 40.12623 | -111.53700 | 19261 ft | 336 kts | 297° |
| 2026-05-07 14:04 | 40.13626 | -111.56406 | 19127 ft | 327 kts | 297° |
| 2026-05-07 14:04 | 40.14608 | -111.59061 | 18988 ft | 325 kts | 297° |
| 2026-05-07 14:04 | 40.15613 | -111.61774 | 18873 ft | 337 kts | 297° |
| 2026-05-07 14:05 | 40.16641 | -111.64555 | 18730 ft | 341 kts | 297° |
| 2026-05-07 14:05 | 40.17669 | -111.67342 | 18582 ft | 339 kts | 297° |
| 2026-05-07 14:05 | 40.18689 | -111.70108 | 18429 ft | 336 kts | 297° |
| 2026-05-07 14:05 | 40.19700 | -111.72850 | 18265 ft | 334 kts | 297° |
| 2026-05-07 14:06 | 40.20706 | -111.75579 | 18113 ft | 333 kts | 297° |
| 2026-05-07 14:06 | 40.21715 | -111.78318 | 17833 ft | 335 kts | 297° |
| 2026-05-07 14:06 | 40.22722 | -111.81058 | 17670 ft | 333 kts | 297° |
| 2026-05-07 14:06 | 40.23725 | -111.83784 | 17516 ft | 332 kts | 297° |
| 2026-05-07 14:07 | 40.24722 | -111.86499 | 17366 ft | 331 kts | 297° |
| 2026-05-07 14:07 | 40.25717 | -111.89212 | 17211 ft | 330 kts | 297° |
| 2026-05-07 14:07 | 40.26720 | -111.91911 | 17065 ft | 329 kts | 301° |
| 2026-05-07 14:07 | 40.28099 | -111.94278 | 16863 ft | 328 kts | 316° |
| 2026-05-07 14:08 | 40.29957 | -111.96040 | 16599 ft | 332 kts | 328° |
| 2026-05-07 14:08 | 40.31972 | -111.97548 | 16326 ft | 335 kts | 330° |
| 2026-05-07 14:08 | 40.33996 | -111.99016 | 16025 ft | 331 kts | 330° |
| 2026-05-07 14:08 | 40.35988 | -112.00482 | 15740 ft | 326 kts | 329° |
| 2026-05-07 14:09 | 40.37945 | -112.01947 | 15462 ft | 322 kts | 329° |
| 2026-05-07 14:09 | 40.39878 | -112.03406 | 15237 ft | 319 kts | 329° |
| 2026-05-07 14:09 | 40.41843 | -112.04741 | 14949 ft | 320 kts | 339° |
| 2026-05-07 14:09 | 40.44026 | -112.05347 | 14674 ft | 322 kts | 351° |
| 2026-05-07 14:10 | 40.46264 | -112.05646 | 14376 ft | 325 kts | 352° |
| 2026-05-07 14:10 | 40.48521 | -112.05910 | 14058 ft | 327 kts | 352° |
| 2026-05-07 14:10 | 40.50786 | -112.06177 | 13724 ft | 328 kts | 352° |
| 2026-05-07 14:10 | 40.53057 | -112.06458 | 13380 ft | 327 kts | 352° |
| 2026-05-07 14:11 | 40.55279 | -112.06743 | 13051 ft | 323 kts | 352° |
| 2026-05-07 14:11 | 40.57530 | -112.07038 | 12731 ft | 318 kts | 351° |
| 2026-05-07 14:11 | 40.59684 | -112.07324 | 12441 ft | 313 kts | 351° |
| 2026-05-07 14:11 | 40.61833 | -112.07611 | 12139 ft | 306 kts | 351° |
| 2026-05-07 14:12 | 40.63904 | -112.07882 | 11925 ft | 291 kts | 351° |
| 2026-05-07 14:12 | 40.65880 | -112.08115 | 11835 ft | 280 kts | 351° |
| 2026-05-07 14:12 | 40.67801 | -112.08334 | 11737 ft | 275 kts | 351° |
| 2026-05-07 14:12 | 40.69693 | -112.08552 | 11639 ft | 272 kts | 351° |
| 2026-05-07 14:13 | 40.71576 | -112.08771 | 11564 ft | 272 kts | 351° |
| 2026-05-07 14:13 | 40.73461 | -112.08991 | 11468 ft | 271 kts | 351° |
| 2026-05-07 14:13 | 40.75313 | -112.09206 | 11366 ft | 263 kts | 351° |
| 2026-05-07 14:13 | 40.77104 | -112.09416 | 11270 ft | 254 kts | 351° |
| 2026-05-07 14:14 | 40.78841 | -112.09622 | 11175 ft | 247 kts | 351° |
| 2026-05-07 14:14 | 40.80541 | -112.09823 | 11057 ft | 244 kts | 350° |
| 2026-05-07 14:14 | 40.82220 | -112.10023 | 10887 ft | 243 kts | 350° |
| 2026-05-07 14:14 | 40.83900 | -112.10273 | 10639 ft | 241 kts | 347° |
| 2026-05-07 14:15 | 40.85537 | -112.10610 | 10395 ft | 236 kts | 346° |
| 2026-05-07 14:15 | 40.87151 | -112.10977 | 10141 ft | 235 kts | 345° |
| 2026-05-07 14:15 | 40.88757 | -112.11357 | 9864 ft | 235 kts | 345° |
| 2026-05-07 14:15 | 40.90367 | -112.11730 | 9569 ft | 235 kts | 346° |
| 2026-05-07 14:16 | 40.91982 | -112.12077 | 9289 ft | 235 kts | 347° |
| 2026-05-07 14:16 | 40.93606 | -112.12388 | 9003 ft | 236 kts | 348° |
| 2026-05-07 14:16 | 40.95236 | -112.12678 | 8723 ft | 237 kts | 349° |
| 2026-05-07 14:16 | 40.96874 | -112.12947 | 8459 ft | 237 kts | 350° |
| 2026-05-07 14:17 | 40.98520 | -112.13138 | 8176 ft | 239 kts | 1° |
| 2026-05-07 14:17 | 41.00013 | -112.12297 | 8016 ft | 232 kts | 44° |
| 2026-05-07 14:17 | 41.00716 | -112.10495 | 8003 ft | 218 kts | 81° |
| 2026-05-07 14:17 | 41.00870 | -112.08473 | 8012 ft | 222 kts | 88° |
| 2026-05-07 14:18 | 41.00919 | -112.06441 | 8009 ft | 219 kts | 89° |
| 2026-05-07 14:18 | 41.00922 | -112.05116 | 7996 ft | 216 kts | 98° |
| 2026-05-07 14:18 | 41.00323 | -112.03367 | 7948 ft | 209 kts | 141° |
| 2026-05-07 14:18 | 40.98593 | -112.02423 | 7713 ft | 204 kts | 171° |
| 2026-05-07 14:19 | 40.97223 | -112.02025 | 7431 ft | 199 kts | 172° |
| 2026-05-07 14:19 | 40.95871 | -112.01740 | 7183 ft | 195 kts | 176° |
| 2026-05-07 14:19 | 40.94524 | -112.01554 | 6936 ft | 194 kts | 177° |
| 2026-05-07 14:19 | 40.93619 | -112.01445 | 6764 ft | 193 kts | 176° |
| 2026-05-07 14:20 | 40.92317 | -112.01292 | 6524 ft | 185 kts | 176° |
| 2026-05-07 14:20 | 40.91083 | -112.01147 | 6301 ft | 172 kts | 176° |
| 2026-05-07 14:20 | 40.89935 | -112.01012 | 6100 ft | 163 kts | 176° |
| 2026-05-07 14:20 | 40.88809 | -112.00880 | 5898 ft | 163 kts | 175° |
| 2026-05-07 14:21 | 40.87671 | -112.00747 | 5662 ft | 163 kts | 174° |
| 2026-05-07 14:21 | 40.86555 | -112.00616 | 5468 ft | 160 kts | 173° |
| 2026-05-07 14:21 | 40.85453 | -112.00485 | 5262 ft | 159 kts | 173° |
| 2026-05-07 14:21 | 40.84352 | -112.00352 | 4998 ft | 159 kts | 172° |
| 2026-05-07 14:22 | 40.82865 | -112.00172 | 4717 ft | 162 kts | 172° |
| 2026-05-07 14:22 | 40.82123 | -112.00085 | 4544 ft | 160 kts | 172° |
| 2026-05-07 14:22 | 40.81032 | -111.99964 | 4303 ft | 155 kts | 172° |
| 2026-05-07 14:22 | 40.79992 | -111.99839 | 4234 ft | 134 kts | 176° |
| 2026-05-07 14:23 | 40.79257 | -111.99746 | 4233 ft | 60 kts | 173° |
| 2026-05-07 14:23 | 40.79106 | -111.99663 | 4236 ft | 15 kts | 93° |
| 2026-05-07 14:23 | 40.79095 | -111.99519 | 4237 ft | 16 kts | 96° |
| 2026-05-07 14:23 | 40.79100 | -111.99377 | 4236 ft | 15 kts | 83° |
| 2026-05-07 14:24 | 40.79111 | -111.99241 | 4235 ft | 15 kts | 85° |
| 2026-05-07 14:24 | 40.79119 | -111.99111 | 4234 ft | 14 kts | 85° |
| 2026-05-07 14:24 | 40.79127 | -111.98986 | 4233 ft | 13 kts | 85° |
| 2026-05-07 14:24 | 40.79134 | -111.98867 | 4232 ft | 13 kts | 85° |
| 2026-05-07 14:25 | 40.79139 | -111.98751 | 4230 ft | 13 kts | 100° |
| 2026-05-07 14:25 | 40.79066 | -111.98704 | 4230 ft | 12 kts | 178° |
| 2026-05-07 14:25 | 40.78981 | -111.98698 | 4230 ft | 12 kts | 173° |